createdAt,value
2022-08-28T00:02:25.189Z,10.85
2022-08-28T00:05:14.122Z,11.68
2022-08-28T00:08:01.818Z,12.82
2022-08-28T00:10:49.834Z,13.45
2022-08-28T00:13:37.825Z,9.80
2022-08-28T00:16:25.756Z,11.45
2022-08-28T00:19:15.324Z,12.73
2022-08-28T00:22:04.155Z,9.48
2022-08-28T00:24:51.423Z,11.45
2022-08-28T00:27:55.185Z,12.25
2022-08-28T00:30:48.778Z,10.52
2022-08-28T00:33:37.585Z,13.38
2022-08-28T00:36:24.889Z,6.85
2022-08-28T00:39:16.477Z,13.00
2022-08-28T00:42:06.817Z,10.43
2022-08-28T00:44:54.092Z,11.77
2022-08-28T00:47:41.508Z,11.27
2022-08-28T00:50:56.840Z,9.93
2022-08-28T00:56:37.557Z,10.57
2022-08-28T01:02:12.955Z,13.55
2022-08-28T01:05:00.414Z,11.88
2022-08-28T01:07:48.831Z,13.75
2022-08-28T01:10:36.193Z,10.32
2022-08-28T01:13:25.232Z,14.02
2022-08-28T01:16:15.086Z,14.65
2022-08-28T01:19:09.128Z,10.93
2022-08-28T01:22:09.247Z,13.25
2022-08-28T01:25:00.750Z,10.93
2022-08-28T01:27:48.044Z,13.38
2022-08-28T01:30:35.348Z,10.40
2022-08-28T01:33:27.888Z,12.20
2022-08-28T01:36:16.386Z,10.40
2022-08-28T01:39:16.466Z,12.30
2022-08-28T01:42:04.572Z,13.55
2022-08-28T01:44:54.041Z,10.43
2022-08-28T01:50:29.684Z,14.57
2022-08-28T01:53:19.672Z,11.57
2022-08-28T01:56:15.036Z,15.32
2022-08-28T01:59:05.838Z,9.52
2022-08-28T02:01:55.224Z,11.20
2022-08-28T02:07:35.370Z,12.10
2022-08-28T02:10:25.286Z,9.98
2022-08-28T02:13:13.345Z,14.35
2022-08-28T02:16:00.768Z,13.57
2022-08-28T02:18:48.856Z,11.10
2022-08-28T02:21:36.120Z,15.82
2022-08-28T02:24:23.695Z,14.00
2022-08-28T02:27:10.953Z,10.90
2022-08-28T02:29:58.924Z,12.07
2022-08-28T02:32:46.941Z,8.43
2022-08-28T02:35:34.254Z,11.65
2022-08-28T02:38:22.508Z,14.88
2022-08-28T02:41:11.388Z,15.00
2022-08-28T02:43:59.451Z,12.85
2022-08-28T02:46:46.700Z,9.82
2022-08-28T02:49:36.146Z,9.80
2022-08-28T02:52:24.542Z,10.82
2022-08-28T02:55:14.497Z,13.55
2022-08-28T02:58:01.818Z,12.50
2022-08-28T03:00:49.565Z,14.00
2022-08-28T03:03:36.885Z,12.45
2022-08-28T03:06:25.260Z,6.78
2022-08-28T03:09:12.548Z,12.07
2022-08-28T03:11:59.873Z,9.27
2022-08-28T03:14:47.728Z,11.85
2022-08-28T03:17:36.787Z,9.82
2022-08-28T03:20:24.293Z,10.00
2022-08-28T03:23:27.641Z,12.55
2022-08-28T03:26:18.400Z,9.98
2022-08-28T03:29:05.884Z,12.23
2022-08-28T03:31:53.121Z,15.60
2022-08-28T03:34:40.977Z,10.50
2022-08-28T03:37:28.484Z,7.93
2022-08-28T03:40:16.048Z,6.57
2022-08-28T03:43:03.334Z,12.10
2022-08-28T03:46:03.426Z,10.02
2022-08-28T03:48:52.037Z,9.25
2022-08-28T03:51:40.630Z,9.20
2022-08-28T03:54:31.104Z,13.07
2022-08-28T03:57:20.844Z,12.40
2022-08-28T04:00:13.405Z,14.63
2022-08-28T04:03:01.023Z,13.93
2022-08-28T04:05:48.326Z,16.75
2022-08-28T04:08:35.746Z,19.38
2022-08-28T04:11:23.478Z,15.40
2022-08-28T04:14:11.663Z,14.23
2022-08-28T04:17:01.485Z,9.75
2022-08-28T04:19:52.685Z,10.32
2022-08-28T04:22:40.253Z,13.63
2022-08-28T04:25:27.541Z,13.18
2022-08-28T04:28:14.972Z,12.65
2022-08-28T04:31:02.822Z,14.70
2022-08-28T04:33:50.093Z,15.05
2022-08-28T04:36:38.160Z,13.48
2022-08-28T04:39:25.428Z,16.55
2022-08-28T04:42:12.694Z,15.18
2022-08-28T04:45:00.000Z,15.52
2022-08-28T04:47:47.280Z,13.95
2022-08-28T04:50:34.721Z,14.27
2022-08-28T04:53:22.061Z,14.75
2022-08-28T04:56:11.857Z,15.20
2022-08-28T04:59:01.025Z,16.13
2022-08-28T05:01:48.372Z,16.08
2022-08-28T05:04:35.876Z,10.60
2022-08-28T05:07:23.114Z,17.77
2022-08-28T05:10:10.536Z,16.08
2022-08-28T05:12:57.802Z,14.85
2022-08-28T05:15:47.681Z,14.82
2022-08-28T05:18:35.533Z,17.85
2022-08-28T05:21:23.400Z,19.55
2022-08-28T05:24:10.789Z,15.40
2022-08-28T05:26:58.256Z,15.50
2022-08-28T05:29:45.625Z,19.35
2022-08-28T05:32:32.879Z,15.45
2022-08-28T05:35:20.315Z,16.58
2022-08-28T05:38:08.647Z,16.13
2022-08-28T05:40:56.189Z,18.92
2022-08-28T05:43:43.742Z,15.73
2022-08-28T05:46:31.987Z,18.25
2022-08-28T05:49:19.707Z,18.15
2022-08-28T05:52:07.033Z,18.73
2022-08-28T05:54:55.812Z,13.57
2022-08-28T05:57:43.058Z,18.58
2022-08-28T06:00:30.366Z,21.15
2022-08-28T06:03:17.680Z,18.67
2022-08-28T06:06:05.733Z,19.90
2022-08-28T06:08:59.149Z,18.65
2022-08-28T06:11:47.717Z,19.90
2022-08-28T06:14:35.082Z,19.00
2022-08-28T06:17:23.828Z,18.92
2022-08-28T06:20:11.677Z,21.37
2022-08-28T06:22:59.042Z,21.48
2022-08-28T06:25:49.358Z,17.02
2022-08-28T06:28:36.802Z,20.80
2022-08-28T06:31:28.792Z,20.42
2022-08-28T06:34:20.340Z,19.02
2022-08-28T06:37:08.083Z,17.92
2022-08-28T06:39:55.585Z,19.90
2022-08-28T06:42:42.844Z,16.30
2022-08-28T06:45:31.014Z,17.58
2022-08-28T06:48:19.849Z,20.50
2022-08-28T06:51:09.960Z,18.58
2022-08-28T06:53:57.908Z,23.60
2022-08-28T06:56:46.214Z,19.25
2022-08-28T06:59:33.486Z,18.15
2022-08-28T07:02:21.384Z,19.05
2022-08-28T07:05:15.592Z,17.58
2022-08-28T07:08:03.130Z,17.30
2022-08-28T07:10:50.538Z,23.67
2022-08-28T07:13:37.818Z,20.55
2022-08-28T07:16:29.336Z,17.00
2022-08-28T07:19:16.933Z,18.50
2022-08-28T07:22:04.762Z,19.50
2022-08-28T07:24:54.624Z,19.05
2022-08-28T07:27:41.897Z,18.90
2022-08-28T07:30:29.280Z,16.75
2022-08-28T07:33:16.543Z,19.55
2022-08-28T07:36:06.986Z,19.15
2022-08-28T07:38:59.482Z,20.80
2022-08-28T07:41:47.733Z,20.25
2022-08-28T07:44:50.238Z,17.35
2022-08-28T07:47:38.619Z,18.30
2022-08-28T07:50:25.892Z,19.20
2022-08-28T07:53:13.701Z,21.00
2022-08-28T07:56:01.038Z,20.92
2022-08-28T07:58:48.572Z,16.67
2022-08-28T08:01:43.545Z,21.17
2022-08-28T08:04:30.858Z,16.67
2022-08-28T08:07:19.823Z,13.45
2022-08-28T08:10:11.381Z,17.05
2022-08-28T08:12:58.637Z,15.00
2022-08-28T08:15:46.583Z,18.50
2022-08-28T08:18:34.256Z,17.45
2022-08-28T08:21:24.371Z,19.88
2022-08-28T08:24:20.623Z,13.88
2022-08-28T08:27:07.938Z,15.38
2022-08-28T08:29:55.212Z,16.65
2022-08-28T08:32:42.475Z,17.38
2022-08-28T08:35:29.854Z,17.45
2022-08-28T08:38:17.103Z,16.20
2022-08-28T08:41:24.876Z,15.93
2022-08-28T08:44:34.217Z,17.20
2022-08-28T08:47:30.970Z,19.95
2022-08-28T08:50:22.344Z,17.17
2022-08-28T08:53:28.093Z,16.25
2022-08-28T08:56:17.680Z,17.77
2022-08-28T08:59:10.335Z,20.65
2022-08-28T09:02:31.391Z,21.77
2022-08-28T09:05:25.618Z,17.58
2022-08-28T09:08:26.300Z,17.67
2022-08-28T09:11:29.112Z,14.45
2022-08-28T09:14:27.078Z,21.00
2022-08-28T09:17:23.180Z,17.98
2022-08-28T09:20:16.764Z,12.90
2022-08-28T09:23:13.144Z,18.85
2022-08-28T09:26:04.353Z,15.43
2022-08-28T09:29:07.865Z,16.98
2022-08-28T09:31:55.893Z,18.05
2022-08-28T09:35:01.140Z,14.73
2022-08-28T09:37:48.397Z,14.27
2022-08-28T09:40:54.659Z,17.63
2022-08-28T09:43:46.541Z,13.77
2022-08-28T09:46:34.877Z,16.90
2022-08-28T09:49:26.902Z,16.25
2022-08-28T09:52:24.586Z,14.35
2022-08-28T09:55:23.324Z,15.23
2022-08-28T09:58:10.671Z,13.00
2022-08-28T10:01:15.604Z,16.58
2022-08-28T10:04:11.962Z,15.20
2022-08-28T10:07:05.151Z,14.20
2022-08-28T10:10:01.323Z,15.75
2022-08-28T10:13:01.382Z,14.98
2022-08-28T10:16:14.246Z,14.48
2022-08-28T10:19:11.797Z,15.45
2022-08-28T10:22:21.210Z,19.85
2022-08-28T10:28:49.017Z,12.57
2022-08-28T10:31:50.944Z,13.80
2022-08-28T10:34:50.343Z,15.00
2022-08-28T10:37:44.728Z,14.63
2022-08-28T10:40:46.510Z,13.43
2022-08-28T10:43:43.459Z,13.77
2022-08-28T10:46:46.044Z,13.77
2022-08-28T10:49:47.297Z,17.10
2022-08-28T10:52:46.431Z,14.50
2022-08-28T10:55:39.473Z,9.60
2022-08-28T10:58:27.530Z,14.75
2022-08-28T11:01:28.446Z,14.90
2022-08-28T11:04:25.436Z,17.20
2022-08-28T11:07:21.943Z,12.23
2022-08-28T11:10:40.889Z,16.33
2022-08-28T11:13:59.573Z,10.30
2022-08-28T11:16:47.084Z,12.68
2022-08-28T11:20:11.400Z,12.18
2022-08-28T11:23:15.603Z,17.42
2022-08-28T11:26:09.042Z,13.63
2022-08-28T11:28:56.354Z,15.93
2022-08-28T11:31:43.629Z,13.05
2022-08-28T11:35:00.291Z,11.02
2022-08-28T11:37:52.964Z,12.35
2022-08-28T11:40:56.446Z,19.48
2022-08-28T11:43:45.739Z,15.60
2022-08-28T11:46:35.018Z,15.35
2022-08-28T11:52:42.405Z,9.48
2022-08-28T11:56:21.775Z,12.73
2022-08-28T11:59:40.015Z,11.10
2022-08-28T12:02:39.570Z,16.67
2022-08-28T12:05:33.040Z,11.77
2022-08-28T12:08:44.790Z,13.95
2022-08-28T12:11:41.546Z,15.98
2022-08-28T12:14:28.785Z,16.08
2022-08-28T12:17:21.822Z,11.38
2022-08-28T12:20:29.271Z,15.43
2022-08-28T12:23:40.517Z,14.77
2022-08-28T12:26:38.497Z,12.68
2022-08-28T12:29:32.880Z,11.05
2022-08-28T12:32:37.749Z,13.95
2022-08-28T12:35:30.139Z,14.52
2022-08-28T12:38:21.759Z,12.45
2022-08-28T12:41:17.033Z,13.38
2022-08-28T12:44:08.895Z,11.52
2022-08-28T12:46:56.981Z,13.20
2022-08-28T12:49:44.490Z,15.18
2022-08-28T12:52:34.471Z,13.35
2022-08-28T12:55:24.534Z,10.73
2022-08-28T12:58:32.066Z,12.60
2022-08-28T13:01:32.829Z,12.38
2022-08-28T13:04:39.744Z,11.60
2022-08-28T13:07:31.393Z,15.00
2022-08-28T13:10:23.308Z,12.38
2022-08-28T13:13:33.386Z,9.95
2022-08-28T13:16:46.421Z,15.23
2022-08-28T13:19:35.982Z,14.35
2022-08-28T13:25:29.453Z,11.15
2022-08-28T13:28:19.481Z,11.73
2022-08-28T13:31:08.363Z,11.68
2022-08-28T13:34:09.225Z,9.18
2022-08-28T13:36:59.851Z,11.23
2022-08-28T13:39:47.521Z,11.82
2022-08-28T13:42:34.841Z,9.13
2022-08-28T13:45:22.092Z,10.93
2022-08-28T13:48:11.053Z,10.35
2022-08-28T13:51:14.277Z,13.07
2022-08-28T13:54:08.263Z,11.48
2022-08-28T13:56:56.903Z,8.63
2022-08-28T13:59:44.177Z,10.05
2022-08-28T14:02:50.287Z,10.65
2022-08-28T14:05:37.600Z,8.20
2022-08-28T14:08:24.941Z,8.45
2022-08-28T14:11:14.908Z,8.32
2022-08-28T14:14:03.209Z,9.95
2022-08-28T14:16:55.164Z,8.82
2022-08-28T14:19:42.497Z,10.63
2022-08-28T14:22:30.890Z,11.82
2022-08-28T14:25:18.239Z,10.52
2022-08-28T14:28:05.581Z,12.20
2022-08-28T14:30:52.901Z,11.77
2022-08-28T14:33:40.222Z,9.32
2022-08-28T14:36:30.929Z,12.57
2022-08-28T14:39:18.191Z,11.03
2022-08-28T14:42:05.703Z,11.27
2022-08-28T14:45:00.457Z,10.02
2022-08-28T14:47:47.744Z,10.40
2022-08-28T14:50:42.260Z,9.73
2022-08-28T14:53:29.969Z,8.80
2022-08-28T14:56:17.984Z,7.28
2022-08-28T14:59:07.202Z,11.35
2022-08-28T15:01:58.376Z,9.88
2022-08-28T15:04:45.679Z,8.32
2022-08-28T15:07:32.981Z,8.73
2022-08-28T15:10:20.373Z,10.57
2022-08-28T15:13:10.166Z,11.10
2022-08-28T15:16:15.689Z,14.02
2022-08-28T15:19:04.152Z,9.80
2022-08-28T15:21:54.596Z,9.02
2022-08-28T15:24:41.873Z,9.45
2022-08-28T15:27:29.110Z,10.02
2022-08-28T15:30:16.348Z,10.23
2022-08-28T15:33:04.197Z,7.60
2022-08-28T15:35:55.708Z,10.27
2022-08-28T15:39:01.636Z,7.38
2022-08-28T15:41:49.406Z,9.00
2022-08-28T15:44:37.338Z,7.65
2022-08-28T15:47:24.851Z,8.68
2022-08-28T15:50:12.165Z,10.73
2022-08-28T15:52:59.888Z,7.68
2022-08-28T15:55:47.140Z,10.05
2022-08-28T15:58:34.441Z,10.43
2022-08-28T16:01:22.497Z,10.23
2022-08-28T16:04:10.044Z,11.35
2022-08-28T16:07:00.589Z,7.68
2022-08-28T16:09:48.830Z,9.43
2022-08-28T16:12:39.977Z,10.75
2022-08-28T16:15:27.296Z,8.70
2022-08-28T16:18:15.852Z,11.20
2022-08-28T16:21:05.055Z,7.73
2022-08-28T16:26:39.961Z,10.98
2022-08-28T16:29:27.280Z,10.48
2022-08-28T16:32:14.635Z,8.32
2022-08-28T16:35:03.120Z,6.63
2022-08-28T16:37:50.596Z,8.10
2022-08-28T16:40:41.979Z,7.45
2022-08-28T16:43:29.397Z,7.30
2022-08-28T16:46:22.590Z,11.52
2022-08-28T16:49:10.902Z,6.18
2022-08-28T16:51:58.226Z,9.57
2022-08-28T16:54:48.292Z,11.40
2022-08-28T16:57:36.926Z,10.60
2022-08-28T17:00:24.422Z,9.55
2022-08-28T17:03:12.125Z,10.18
2022-08-28T17:06:05.864Z,13.32
2022-08-28T17:08:56.609Z,7.10
2022-08-28T17:11:44.288Z,9.63
2022-08-28T17:14:39.375Z,8.75
2022-08-28T17:17:27.003Z,10.27
2022-08-28T17:20:33.417Z,14.35
2022-08-28T17:23:20.725Z,8.55
2022-08-28T17:26:08.199Z,11.07
2022-08-28T17:28:55.514Z,11.07
2022-08-28T17:31:43.709Z,8.70
2022-08-28T17:34:31.014Z,9.80
2022-08-28T17:37:20.534Z,11.27
2022-08-28T17:42:56.982Z,7.97
2022-08-28T17:45:44.234Z,6.65
2022-08-28T17:48:32.602Z,9.30
2022-08-28T17:51:19.888Z,9.32
2022-08-28T17:54:24.006Z,11.43
2022-08-28T17:57:11.280Z,9.05
2022-08-28T18:00:00.482Z,8.65
2022-08-28T18:02:51.458Z,8.93
2022-08-28T18:05:41.136Z,9.70
2022-08-28T18:08:28.720Z,21.70
2022-08-28T18:11:16.018Z,8.95
2022-08-28T18:14:04.277Z,11.30
2022-08-28T18:16:51.900Z,10.30
2022-08-28T18:19:42.766Z,9.25
2022-08-28T18:22:30.539Z,10.85
2022-08-28T18:25:37.089Z,10.10
2022-08-28T18:28:26.636Z,13.20
2022-08-28T18:34:01.404Z,10.23
2022-08-28T18:36:49.219Z,11.45
2022-08-28T18:39:36.851Z,13.13
2022-08-28T18:42:25.535Z,8.95
2022-08-28T18:45:13.078Z,8.25
2022-08-28T18:48:01.337Z,10.82
2022-08-28T18:50:49.921Z,8.23
2022-08-28T18:53:37.701Z,11.60
2022-08-28T18:56:28.053Z,9.25
2022-08-28T18:59:18.712Z,11.55
2022-08-28T19:02:07.351Z,10.25
2022-08-28T19:04:54.704Z,8.15
2022-08-28T19:07:41.957Z,7.68
2022-08-28T19:10:33.897Z,6.90
2022-08-28T19:13:21.976Z,9.80
2022-08-28T19:16:09.549Z,8.07
2022-08-28T19:18:56.943Z,11.55
2022-08-28T19:21:45.090Z,7.68
2022-08-28T19:24:33.739Z,9.07
2022-08-28T19:27:22.667Z,11.90
2022-08-28T19:30:13.666Z,14.20
2022-08-28T19:33:05.700Z,7.20
2022-08-28T19:35:54.594Z,8.60
2022-08-28T19:38:42.443Z,8.70
2022-08-28T19:41:30.218Z,10.85
2022-08-28T19:44:17.701Z,10.88
2022-08-28T19:47:05.054Z,8.63
2022-08-28T19:49:54.498Z,10.45
2022-08-28T19:52:45.974Z,7.93
2022-08-28T19:55:33.529Z,8.03
2022-08-28T19:58:20.843Z,9.43
2022-08-28T20:01:08.137Z,8.43
2022-08-28T20:03:56.833Z,6.68
2022-08-28T20:06:45.680Z,8.47
2022-08-28T20:09:32.933Z,11.02
2022-08-28T20:12:20.221Z,8.98
2022-08-28T20:15:09.121Z,9.25
2022-08-28T20:18:00.597Z,9.40
2022-08-28T20:20:49.284Z,6.53
2022-08-28T20:23:36.716Z,8.05
2022-08-28T20:26:23.954Z,9.38
2022-08-28T20:29:15.992Z,11.40
2022-08-28T20:32:03.508Z,11.75
2022-08-28T20:34:50.869Z,11.70
2022-08-28T20:37:44.714Z,7.28
2022-08-28T20:40:32.572Z,8.98
2022-08-28T20:43:19.888Z,7.15
2022-08-28T20:46:08.828Z,12.55
2022-08-28T20:48:56.190Z,7.03
2022-08-28T20:51:56.248Z,7.72
2022-08-28T20:54:44.330Z,10.43
2022-08-28T20:57:31.688Z,10.45
2022-08-28T21:00:19.020Z,9.30
2022-08-28T21:03:06.805Z,7.78
2022-08-28T21:05:54.136Z,9.20
2022-08-28T21:08:41.814Z,11.55
2022-08-28T21:11:29.376Z,10.48
2022-08-28T21:14:16.857Z,8.32
2022-08-28T21:17:05.720Z,7.90
2022-08-28T21:19:53.562Z,12.30
2022-08-28T21:22:41.168Z,11.38
2022-08-28T21:25:28.937Z,10.90
2022-08-28T21:28:16.278Z,8.18
2022-08-28T21:31:10.558Z,9.57
2022-08-28T21:33:58.017Z,7.75
2022-08-28T21:36:50.313Z,9.68
2022-08-28T21:39:37.800Z,11.30
2022-08-28T21:42:25.567Z,13.02
2022-08-28T21:45:13.320Z,10.15
2022-08-28T21:48:00.610Z,11.60
2022-08-28T21:50:47.844Z,10.40
2022-08-28T21:56:27.007Z,11.00
2022-08-28T21:59:14.549Z,9.30
2022-08-28T22:02:02.240Z,7.68
2022-08-28T22:04:49.680Z,10.93
2022-08-28T22:07:37.135Z,12.88
2022-08-28T22:10:25.531Z,13.82
2022-08-28T22:13:14.014Z,9.27
2022-08-28T22:16:01.265Z,9.65
2022-08-28T22:18:49.394Z,9.95
2022-08-28T22:21:55.220Z,10.40
2022-08-28T22:24:42.508Z,13.23
2022-08-28T22:27:31.799Z,12.40
2022-08-28T22:30:19.080Z,9.98
2022-08-28T22:33:06.324Z,12.95
2022-08-28T22:35:54.018Z,10.90
2022-08-28T22:38:41.437Z,10.23
2022-08-28T22:41:37.361Z,10.88
2022-08-28T22:44:24.666Z,12.25
2022-08-28T22:47:11.954Z,9.27
2022-08-28T22:50:01.848Z,10.13
2022-08-28T22:52:49.829Z,9.35
2022-08-28T22:55:42.721Z,10.05
2022-08-28T22:58:32.455Z,5.95
2022-08-28T23:01:23.389Z,11.43
2022-08-28T23:04:11.427Z,11.90
2022-08-28T23:06:58.716Z,8.00
2022-08-28T23:09:45.966Z,10.75
2022-08-28T23:12:34.570Z,11.45
2022-08-28T23:15:22.397Z,16.10
2022-08-28T23:18:10.907Z,9.75
2022-08-28T23:20:58.278Z,8.97
2022-08-28T23:23:46.137Z,7.63
2022-08-28T23:26:33.805Z,13.90
2022-08-28T23:29:21.170Z,9.65
2022-08-28T23:32:08.448Z,11.68
2022-08-28T23:34:58.484Z,10.35
2022-08-28T23:37:48.898Z,12.75
2022-08-28T23:40:39.470Z,10.88
2022-08-28T23:43:26.825Z,8.88
2022-08-28T23:46:19.274Z,10.77
2022-08-28T23:49:06.785Z,9.43
2022-08-28T23:51:54.102Z,8.25
2022-08-28T23:54:41.405Z,11.95
2022-08-28T23:57:29.128Z,13.73
